Main page
METAR-TAF:

METAR-TAF

Airports :

Greenville, Maine, United States

latitude: 45-28N, longitude: 069-35W, elevation: 1401 ft

Current weather observation

The report was made 20 minutes ago, at 00:56 UTC
Wind 14 mph from the West/Northwest with gusts up to 26 mph
Temperature 36°F
Humidity 55%
Pressure 29.74 in. Hg

METAR: KGNR 110056Z AUTO 30012G23KT 02/M06 A2974 RMK AO1 PK WND 29027/0043 SLP084 T00171056

Time: 20:16 (01:16 UTC)


TAF: missing

Weather observations and forecasts of more than 4000 airports (METAR and TAF reports).

The available stations are represented by yellow and red dots on the map.

Hover mouse over dot to see the name of the station.

Then click to see weather observations and forecasts.

To change the map : click on the green buttons with a black cross to zoom in, on the green button with a dash to zoom out, or on the green arrows for adjacent maps.


METAR-TAF: